createdAt,value
2017-09-09T00:02:21.250Z,10.70
2017-09-09T00:04:48.866Z,10.70
2017-09-09T00:07:16.664Z,10.70
2017-09-09T00:09:44.324Z,10.70
2017-09-09T00:12:11.949Z,10.70
2017-09-09T00:14:39.671Z,10.70
2017-09-09T00:17:08.078Z,10.70
2017-09-09T00:19:35.731Z,10.70
2017-09-09T00:22:03.397Z,10.70
2017-09-09T00:24:31.069Z,10.70
2017-09-09T00:26:58.686Z,10.60
2017-09-09T00:29:26.422Z,10.60
2017-09-09T00:31:54.054Z,10.60
2017-09-09T00:34:21.743Z,10.60
2017-09-09T00:36:49.465Z,10.60
2017-09-09T00:39:17.105Z,10.60
2017-09-09T00:41:44.781Z,10.50
2017-09-09T00:44:12.556Z,10.50
2017-09-09T00:46:40.952Z,10.50
2017-09-09T00:49:08.622Z,10.50
2017-09-09T00:51:36.422Z,10.50
2017-09-09T00:54:04.911Z,10.60
2017-09-09T00:56:32.565Z,10.50
2017-09-09T00:59:00.453Z,10.50
2017-09-09T01:01:28.104Z,10.50
2017-09-09T01:03:55.752Z,10.40
2017-09-09T01:06:23.507Z,10.40
2017-09-09T01:08:51.899Z,10.40
2017-09-09T01:11:19.543Z,10.30
2017-09-09T01:13:47.209Z,10.40
2017-09-09T01:16:14.863Z,10.30
2017-09-09T01:18:43.247Z,10.30
2017-09-09T01:21:11.038Z,10.30
2017-09-09T01:23:38.709Z,10.30
2017-09-09T01:26:06.432Z,10.20
2017-09-09T01:28:34.172Z,10.30
2017-09-09T01:31:02.577Z,10.20
2017-09-09T01:33:30.217Z,10.20
2017-09-09T01:35:58.687Z,10.10
2017-09-09T01:38:27.095Z,10.10
2017-09-09T01:40:54.777Z,10.10
2017-09-09T01:43:22.455Z,10.10
2017-09-09T01:45:50.108Z,10.00
2017-09-09T01:48:17.743Z,10.00
2017-09-09T01:50:45.536Z,10.00
2017-09-09T01:53:13.236Z,10.00
2017-09-09T01:55:41.623Z,10.00
2017-09-09T01:58:10.069Z,9.90
2017-09-09T02:00:37.689Z,9.90
2017-09-09T02:03:05.319Z,10.00
2017-09-09T02:05:33.876Z,10.00
2017-09-09T02:08:01.508Z,10.00
2017-09-09T02:10:29.132Z,10.00
2017-09-09T02:12:56.803Z,10.00
2017-09-09T02:15:24.460Z,10.00
2017-09-09T02:17:52.103Z,9.90
2017-09-09T02:20:20.580Z,9.90
2017-09-09T02:22:48.196Z,9.90
2017-09-09T02:25:15.915Z,9.90
2017-09-09T02:27:43.581Z,9.90
2017-09-09T02:30:11.256Z,9.90
2017-09-09T02:32:38.876Z,9.90
2017-09-09T02:35:06.542Z,9.90
2017-09-09T02:37:34.933Z,9.80
2017-09-09T02:40:02.608Z,9.80
2017-09-09T02:42:30.283Z,9.90
2017-09-09T02:44:57.899Z,9.80
2017-09-09T02:47:26.412Z,9.80
2017-09-09T02:49:54.254Z,9.80
2017-09-09T02:52:21.877Z,9.80
2017-09-09T02:54:49.520Z,9.80
2017-09-09T02:57:17.233Z,9.80
2017-09-09T02:59:44.883Z,9.80
2017-09-09T03:02:13.305Z,9.70
2017-09-09T03:04:40.985Z,9.70
2017-09-09T03:07:08.630Z,9.70
2017-09-09T03:09:36.240Z,9.70
2017-09-09T03:12:03.911Z,9.60
2017-09-09T03:14:31.516Z,9.60
2017-09-09T03:16:59.172Z,9.60
2017-09-09T03:19:26.849Z,9.60
2017-09-09T03:21:54.519Z,9.60
2017-09-09T03:24:22.194Z,9.60
2017-09-09T03:26:50.706Z,9.60
2017-09-09T03:29:18.326Z,9.50
2017-09-09T03:31:46.011Z,9.50
2017-09-09T03:34:13.668Z,9.60
2017-09-09T03:36:42.077Z,9.50
2017-09-09T03:39:09.702Z,9.50
2017-09-09T03:41:37.376Z,9.50
2017-09-09T03:44:05.046Z,9.50
2017-09-09T03:46:32.656Z,9.50
2017-09-09T03:49:01.132Z,9.60
2017-09-09T03:51:28.776Z,9.50
2017-09-09T03:53:56.413Z,9.60
2017-09-09T03:56:24.096Z,9.60
2017-09-09T03:58:51.724Z,9.60
2017-09-09T04:01:19.335Z,9.50
2017-09-09T04:03:47.815Z,9.50
2017-09-09T04:06:15.475Z,9.50
2017-09-09T04:08:43.121Z,9.60
2017-09-09T04:11:10.806Z,9.60
2017-09-09T04:13:39.187Z,9.70
2017-09-09T04:16:07.564Z,9.70
2017-09-09T04:18:36.042Z,9.70
2017-09-09T04:21:04.428Z,9.60
2017-09-09T04:23:32.047Z,9.60
2017-09-09T04:25:59.783Z,9.60
2017-09-09T04:28:27.432Z,9.60
2017-09-09T04:30:55.048Z,9.70
2017-09-09T04:33:22.719Z,9.70
2017-09-09T04:35:51.099Z,9.70
2017-09-09T04:38:19.489Z,9.80
2017-09-09T04:40:48.009Z,9.80
2017-09-09T04:43:15.625Z,9.80
2017-09-09T04:45:44.023Z,9.80
2017-09-09T04:48:11.724Z,9.80
2017-09-09T04:50:39.364Z,9.80
2017-09-09T04:53:06.976Z,9.80
2017-09-09T04:55:34.647Z,9.80
2017-09-09T04:58:02.285Z,9.80
2017-09-09T05:00:29.906Z,9.90
2017-09-09T05:02:57.697Z,9.90
2017-09-09T05:05:25.325Z,10.00
2017-09-09T05:07:53.021Z,9.90
2017-09-09T05:10:20.702Z,10.00
2017-09-09T05:12:49.126Z,10.10
2017-09-09T05:15:16.744Z,10.00
2017-09-09T05:17:45.185Z,10.10
2017-09-09T05:20:12.812Z,10.00
2017-09-09T05:22:40.473Z,10.10
2017-09-09T05:25:08.208Z,10.10
2017-09-09T05:27:36.619Z,10.10
2017-09-09T05:30:04.247Z,10.10
2017-09-09T05:32:32.822Z,10.10
2017-09-09T05:35:00.499Z,10.10
2017-09-09T05:37:28.191Z,10.10
2017-09-09T05:39:56.020Z,10.20
2017-09-09T05:42:23.687Z,10.20
2017-09-09T05:44:51.328Z,10.30
2017-09-09T05:47:19.797Z,10.40
2017-09-09T05:49:48.229Z,10.50
2017-09-09T05:52:15.914Z,10.50
2017-09-09T05:54:43.692Z,10.60
2017-09-09T05:57:12.135Z,10.90
2017-09-09T05:59:39.778Z,10.90
2017-09-09T06:02:07.497Z,11.10
2017-09-09T06:04:35.879Z,11.40
2017-09-09T06:07:04.291Z,11.70
2017-09-09T06:09:31.972Z,11.70
2017-09-09T06:11:59.647Z,11.90
2017-09-09T06:14:27.276Z,12.10
2017-09-09T06:16:55.741Z,12.60
2017-09-09T06:19:23.357Z,12.60
2017-09-09T06:21:51.016Z,12.80
2017-09-09T06:24:18.698Z,13.10
2017-09-09T06:26:47.109Z,13.50
2017-09-09T06:29:14.730Z,13.50
2017-09-09T06:31:43.220Z,13.60
2017-09-09T06:34:11.707Z,13.70
2017-09-09T06:36:40.112Z,13.80
2017-09-09T06:39:07.820Z,13.80
2017-09-09T06:41:35.445Z,14.00
2017-09-09T06:44:03.091Z,14.00
2017-09-09T06:46:30.765Z,14.00
2017-09-09T06:48:58.399Z,14.00
2017-09-09T06:51:26.065Z,14.00
2017-09-09T06:53:53.768Z,13.80
2017-09-09T06:56:21.415Z,13.80
2017-09-09T06:58:49.016Z,13.70
2017-09-09T07:01:17.558Z,13.70
2017-09-09T07:03:45.166Z,13.70
2017-09-09T07:06:12.804Z,13.70
2017-09-09T07:08:41.280Z,13.70
2017-09-09T07:11:09.663Z,13.70
2017-09-09T07:13:38.084Z,13.70
2017-09-09T07:16:05.775Z,13.60
2017-09-09T07:18:33.394Z,13.70
2017-09-09T07:21:01.028Z,13.80
2017-09-09T07:23:30.277Z,13.80
2017-09-09T07:25:57.905Z,13.80
2017-09-09T07:28:25.599Z,13.80
2017-09-09T07:30:53.641Z,13.90
2017-09-09T07:33:21.288Z,13.90
2017-09-09T07:35:48.962Z,14.00
2017-09-09T07:38:16.656Z,14.10
2017-09-09T07:40:44.305Z,14.30
2017-09-09T07:43:11.938Z,14.50
2017-09-09T07:45:39.619Z,15.00
2017-09-09T07:48:07.244Z,15.40
2017-09-09T07:50:34.941Z,15.80
2017-09-09T07:53:02.625Z,16.20
2017-09-09T07:55:30.250Z,16.20
2017-09-09T07:57:57.904Z,16.20
2017-09-09T08:00:25.690Z,16.30
2017-09-09T08:02:53.324Z,16.30
2017-09-09T08:05:21.002Z,16.40
2017-09-09T08:07:48.704Z,16.40
2017-09-09T08:10:16.337Z,16.40
2017-09-09T08:12:44.008Z,16.30
2017-09-09T08:15:11.687Z,16.30
2017-09-09T08:17:39.355Z,16.30
2017-09-09T08:20:07.756Z,16.40
2017-09-09T08:22:35.460Z,16.40
2017-09-09T08:25:03.096Z,16.50
2017-09-09T08:27:30.724Z,16.60
2017-09-09T08:29:59.207Z,16.70
2017-09-09T08:32:27.691Z,17.00
2017-09-09T08:34:56.081Z,17.40
2017-09-09T08:37:23.787Z,17.40
2017-09-09T08:39:51.406Z,17.70
2017-09-09T08:42:19.125Z,17.90
2017-09-09T08:44:46.803Z,18.00
2017-09-09T08:47:15.537Z,18.40
2017-09-09T08:49:43.147Z,18.40
2017-09-09T08:52:11.615Z,19.00
2017-09-09T08:54:40.011Z,19.20
2017-09-09T08:57:07.672Z,19.20
2017-09-09T08:59:35.357Z,19.20
2017-09-09T09:02:03.008Z,19.20
2017-09-09T09:04:30.680Z,19.10
2017-09-09T09:06:58.455Z,18.90
2017-09-09T09:09:26.121Z,18.70
2017-09-09T09:11:53.913Z,18.50
2017-09-09T09:14:21.593Z,18.40
2017-09-09T09:16:49.199Z,18.20
2017-09-09T09:19:16.843Z,18.20
2017-09-09T09:21:44.497Z,18.10
2017-09-09T09:24:12.123Z,18.00
2017-09-09T09:26:41.234Z,17.90
2017-09-09T09:29:08.929Z,17.90
2017-09-09T09:31:36.554Z,17.90
2017-09-09T09:34:04.191Z,18.00
2017-09-09T09:36:31.868Z,18.00
2017-09-09T09:39:00.287Z,18.20
2017-09-09T09:41:27.894Z,18.20
2017-09-09T09:43:55.547Z,18.20
2017-09-09T09:46:23.158Z,18.30
2017-09-09T09:48:50.858Z,18.30
2017-09-09T09:51:18.511Z,18.30
2017-09-09T09:53:46.123Z,18.30
2017-09-09T09:56:13.819Z,18.20
2017-09-09T09:58:41.750Z,18.20
2017-09-09T10:01:09.355Z,18.20
2017-09-09T10:03:36.970Z,18.10
2017-09-09T10:06:04.769Z,18.10
2017-09-09T10:08:32.389Z,18.10
2017-09-09T10:11:00.084Z,18.10
2017-09-09T10:13:27.741Z,18.10
2017-09-09T10:15:55.342Z,18.10
2017-09-09T10:18:23.724Z,18.20
2017-09-09T10:20:52.270Z,18.30
2017-09-09T10:23:19.924Z,18.30
2017-09-09T10:25:48.235Z,18.50
2017-09-09T10:28:17.826Z,18.70
2017-09-09T10:30:45.467Z,18.70
2017-09-09T10:33:13.071Z,18.70
2017-09-09T10:35:41.506Z,18.70
2017-09-09T10:38:09.347Z,18.70
2017-09-09T10:40:36.956Z,18.80
2017-09-09T10:43:04.622Z,18.80
2017-09-09T10:45:32.452Z,19.10
2017-09-09T10:48:00.051Z,19.20
2017-09-09T10:50:28.504Z,19.20
2017-09-09T10:52:56.139Z,19.10
2017-09-09T10:55:23.743Z,19.00
2017-09-09T10:57:52.168Z,18.90
2017-09-09T11:00:19.782Z,18.90
2017-09-09T11:02:48.172Z,18.80
2017-09-09T11:05:15.872Z,18.70
2017-09-09T11:07:43.479Z,18.70
2017-09-09T11:10:11.096Z,18.60
2017-09-09T11:12:38.764Z,18.60
2017-09-09T11:15:06.432Z,18.60
2017-09-09T11:17:34.052Z,18.70
2017-09-09T11:20:02.076Z,18.70
2017-09-09T11:22:29.691Z,18.60
2017-09-09T11:24:57.352Z,18.40
2017-09-09T11:27:25.127Z,18.20
2017-09-09T11:29:52.732Z,18.00
2017-09-09T11:32:21.111Z,17.80
2017-09-09T11:34:49.563Z,17.70
2017-09-09T11:37:17.168Z,17.70
2017-09-09T11:39:44.803Z,17.60
2017-09-09T11:42:13.519Z,17.40
2017-09-09T11:44:41.155Z,17.40
2017-09-09T11:47:09.530Z,17.20
2017-09-09T11:49:37.992Z,17.20
2017-09-09T11:52:05.613Z,17.20
2017-09-09T11:54:33.240Z,17.10
2017-09-09T11:57:01.682Z,17.10
2017-09-09T11:59:29.292Z,17.10
2017-09-09T12:01:56.898Z,17.10
2017-09-09T12:04:24.638Z,17.00
2017-09-09T12:06:52.763Z,17.00
2017-09-09T12:09:20.452Z,17.10
2017-09-09T12:11:48.120Z,17.10
2017-09-09T12:14:15.786Z,17.10
2017-09-09T12:16:43.403Z,17.10
2017-09-09T12:19:12.535Z,17.00
2017-09-09T12:21:40.139Z,17.00
2017-09-09T12:24:08.523Z,16.80
2017-09-09T12:26:36.962Z,16.90
2017-09-09T12:29:04.862Z,16.80
2017-09-09T12:31:33.250Z,16.70
2017-09-09T12:34:01.677Z,16.60
2017-09-09T12:36:30.293Z,16.60
2017-09-09T12:38:57.932Z,16.60
2017-09-09T12:41:25.608Z,16.60
2017-09-09T12:43:53.224Z,16.60
2017-09-09T12:46:20.886Z,16.50
2017-09-09T12:48:48.575Z,16.50
2017-09-09T12:51:16.197Z,16.50
2017-09-09T12:53:43.835Z,16.50
2017-09-09T12:56:11.516Z,16.50
2017-09-09T12:58:39.181Z,16.50
2017-09-09T13:01:06.804Z,16.50
2017-09-09T13:03:35.248Z,16.40
2017-09-09T13:06:02.873Z,16.40
2017-09-09T13:08:30.597Z,16.40
2017-09-09T13:10:58.278Z,16.30
2017-09-09T13:13:25.924Z,16.20
2017-09-09T13:15:54.383Z,16.00
2017-09-09T13:18:22.160Z,16.00
2017-09-09T13:20:49.853Z,16.00
2017-09-09T13:23:17.514Z,15.90
2017-09-09T13:25:46.262Z,15.80
2017-09-09T13:28:13.967Z,15.70
2017-09-09T13:30:41.619Z,15.60
2017-09-09T13:33:09.405Z,15.60
2017-09-09T13:35:37.063Z,15.50
2017-09-09T13:38:04.707Z,15.40
2017-09-09T13:40:33.143Z,15.30
2017-09-09T13:43:01.960Z,15.30
2017-09-09T13:45:29.638Z,15.20
2017-09-09T13:47:57.373Z,15.20
2017-09-09T13:50:25.779Z,15.10
2017-09-09T13:52:53.445Z,15.10
2017-09-09T13:55:21.149Z,15.10
2017-09-09T13:57:48.852Z,15.00
2017-09-09T14:00:16.488Z,15.00
2017-09-09T14:02:44.193Z,14.90
2017-09-09T14:05:11.858Z,14.90
2017-09-09T14:07:39.481Z,14.80
2017-09-09T14:10:07.275Z,14.80
2017-09-09T14:12:34.897Z,14.80
2017-09-09T14:15:02.547Z,14.70
2017-09-09T14:17:30.216Z,14.70
2017-09-09T14:19:57.913Z,14.70
2017-09-09T14:22:25.670Z,14.70
2017-09-09T14:24:53.488Z,14.60
2017-09-09T14:27:21.912Z,14.60
2017-09-09T14:29:49.628Z,14.60
2017-09-09T14:32:18.045Z,14.50
2017-09-09T14:34:45.732Z,14.50
2017-09-09T14:37:13.379Z,14.50
2017-09-09T14:39:41.109Z,14.40
2017-09-09T14:42:08.736Z,14.50
2017-09-09T14:44:36.804Z,14.50
2017-09-09T14:47:04.549Z,14.40
2017-09-09T14:49:32.169Z,14.40
2017-09-09T14:51:59.800Z,14.40
2017-09-09T14:54:28.275Z,14.40
2017-09-09T14:56:55.911Z,14.40
2017-09-09T14:59:23.590Z,14.40
2017-09-09T15:01:51.383Z,14.40
2017-09-09T15:04:19.000Z,14.40
2017-09-09T15:06:46.655Z,14.40
2017-09-09T15:09:14.352Z,14.40
2017-09-09T15:11:42.740Z,14.40
2017-09-09T15:14:11.111Z,14.40
2017-09-09T15:16:39.564Z,14.30
2017-09-09T15:19:07.288Z,14.30
2017-09-09T15:21:34.959Z,14.40
2017-09-09T15:24:02.640Z,14.30
2017-09-09T15:26:30.308Z,14.30
2017-09-09T15:28:58.085Z,14.30
2017-09-09T15:31:25.829Z,14.30
2017-09-09T15:33:53.447Z,14.30
2017-09-09T15:36:21.153Z,14.30
2017-09-09T15:38:48.830Z,14.20
2017-09-09T15:41:17.301Z,14.10
2017-09-09T15:43:44.999Z,14.20
2017-09-09T15:46:12.716Z,14.00
2017-09-09T15:48:40.372Z,14.00
2017-09-09T15:51:08.114Z,13.90
2017-09-09T15:53:35.801Z,13.80
2017-09-09T15:56:03.419Z,13.70
2017-09-09T15:58:31.211Z,13.70
2017-09-09T16:00:58.920Z,13.70
2017-09-09T16:03:26.544Z,13.70
2017-09-09T16:05:54.982Z,13.60
2017-09-09T16:08:22.679Z,13.60
2017-09-09T16:10:50.299Z,13.60
2017-09-09T16:13:18.327Z,13.60
2017-09-09T16:15:46.375Z,13.60
2017-09-09T16:18:14.168Z,13.60
2017-09-09T16:20:42.623Z,13.40
2017-09-09T16:23:10.436Z,13.40
2017-09-09T16:25:38.273Z,13.40
2017-09-09T16:28:06.175Z,13.40
2017-09-09T16:30:34.044Z,13.40
2017-09-09T16:33:01.866Z,13.40
2017-09-09T16:35:30.416Z,13.50
2017-09-09T16:37:58.322Z,13.50
2017-09-09T16:40:26.076Z,13.50
2017-09-09T16:42:54.686Z,13.50
2017-09-09T16:45:22.573Z,13.40
2017-09-09T16:47:50.384Z,13.50
2017-09-09T16:50:19.079Z,13.50
2017-09-09T16:52:46.896Z,13.50
2017-09-09T16:55:15.453Z,13.50
2017-09-09T16:57:43.320Z,13.50
2017-09-09T17:00:11.252Z,13.50
2017-09-09T17:02:39.866Z,13.50
2017-09-09T17:05:07.719Z,13.50
2017-09-09T17:07:35.644Z,13.50
2017-09-09T17:10:04.149Z,13.40
2017-09-09T17:12:32.018Z,13.40
2017-09-09T17:14:59.841Z,13.40
2017-09-09T17:17:27.768Z,13.40
2017-09-09T17:19:55.715Z,13.40
2017-09-09T17:22:23.539Z,13.40
2017-09-09T17:24:51.251Z,13.40
2017-09-09T17:27:18.896Z,13.30
2017-09-09T17:29:46.602Z,13.30
2017-09-09T17:32:15.060Z,13.30
2017-09-09T17:34:43.616Z,13.20
2017-09-09T17:37:11.417Z,13.20
2017-09-09T17:39:39.886Z,13.20
2017-09-09T17:42:09.192Z,13.20
2017-09-09T17:44:37.814Z,13.20
2017-09-09T17:47:05.602Z,13.10
2017-09-09T17:49:34.154Z,13.20
2017-09-09T17:52:01.942Z,13.20
2017-09-09T17:54:29.721Z,13.20
2017-09-09T17:56:57.504Z,13.20
2017-09-09T17:59:25.440Z,13.20
2017-09-09T18:01:53.241Z,13.20
2017-09-09T18:04:20.939Z,13.20
2017-09-09T18:06:48.838Z,13.20
2017-09-09T18:09:16.569Z,13.10
2017-09-09T18:11:44.225Z,13.20
2017-09-09T18:14:11.940Z,13.20
2017-09-09T18:16:39.689Z,13.10
2017-09-09T18:19:07.312Z,13.10
2017-09-09T18:21:35.215Z,13.10
2017-09-09T18:24:02.927Z,13.10
2017-09-09T18:26:30.747Z,13.10
2017-09-09T18:28:58.532Z,13.20
2017-09-09T18:31:26.277Z,13.10
2017-09-09T18:33:54.057Z,13.20
2017-09-09T18:36:21.896Z,13.20
2017-09-09T18:38:49.735Z,13.20
2017-09-09T18:41:18.303Z,13.20
2017-09-09T18:43:46.920Z,13.20
2017-09-09T18:46:14.712Z,13.20
2017-09-09T18:48:43.488Z,13.30
2017-09-09T18:51:11.220Z,13.30
2017-09-09T18:53:39.000Z,13.40
2017-09-09T18:56:06.682Z,13.40
2017-09-09T18:58:34.467Z,13.40
2017-09-09T19:01:02.210Z,13.40
2017-09-09T19:03:29.974Z,13.40
2017-09-09T19:05:57.839Z,13.40
2017-09-09T19:08:25.637Z,13.40
2017-09-09T19:10:54.184Z,13.40
2017-09-09T19:13:21.973Z,13.40
2017-09-09T19:15:50.483Z,13.40
2017-09-09T19:18:18.908Z,13.40
2017-09-09T19:20:46.724Z,13.40
2017-09-09T19:23:15.167Z,13.30
2017-09-09T19:25:42.844Z,13.30
2017-09-09T19:28:10.607Z,13.40
2017-09-09T19:30:39.101Z,13.40
2017-09-09T19:33:07.604Z,13.40
2017-09-09T19:35:35.312Z,13.40
2017-09-09T19:38:02.988Z,13.50
2017-09-09T19:40:31.401Z,13.50
2017-09-09T19:42:59.285Z,13.40
2017-09-09T19:45:26.904Z,13.40
2017-09-09T19:47:54.648Z,13.40
2017-09-09T19:50:22.518Z,13.30
2017-09-09T19:52:50.449Z,13.30
2017-09-09T19:55:18.406Z,13.30
2017-09-09T19:57:46.232Z,13.30
2017-09-09T20:00:13.868Z,13.20
2017-09-09T20:02:41.515Z,13.20
2017-09-09T20:05:09.250Z,13.10
2017-09-09T20:07:36.868Z,13.00
2017-09-09T20:10:04.532Z,12.90
2017-09-09T20:12:32.209Z,12.80
2017-09-09T20:14:59.873Z,12.80
2017-09-09T20:17:27.533Z,12.70
2017-09-09T20:19:55.256Z,12.60
2017-09-09T20:22:23.264Z,12.50
2017-09-09T20:24:50.931Z,12.40
2017-09-09T20:27:18.692Z,12.40
2017-09-09T20:29:46.440Z,12.40
2017-09-09T20:32:14.268Z,12.40
2017-09-09T20:34:42.786Z,12.30
2017-09-09T20:37:10.560Z,12.30
2017-09-09T20:39:38.495Z,12.30
2017-09-09T20:42:07.326Z,12.20
2017-09-09T20:44:35.032Z,12.20
2017-09-09T20:47:02.776Z,12.20
2017-09-09T20:49:30.583Z,12.10
2017-09-09T20:51:58.420Z,12.10
2017-09-09T20:54:26.256Z,12.10
2017-09-09T20:56:54.364Z,12.00
2017-09-09T20:59:22.928Z,12.00
2017-09-09T21:01:55.264Z,12.00
2017-09-09T21:04:23.480Z,12.00
2017-09-09T21:06:52.272Z,12.00
2017-09-09T21:09:20.857Z,11.90
2017-09-09T21:11:49.754Z,11.90
2017-09-09T21:14:17.752Z,11.90
2017-09-09T21:16:45.864Z,11.90
2017-09-09T21:19:13.492Z,11.90
2017-09-09T21:21:41.182Z,11.90
2017-09-09T21:24:08.856Z,11.90
2017-09-09T21:26:37.285Z,11.80
2017-09-09T21:29:04.899Z,11.80
2017-09-09T21:31:33.386Z,11.90
2017-09-09T21:34:01.764Z,11.80
2017-09-09T21:36:30.215Z,11.80
2017-09-09T21:38:57.981Z,11.80
2017-09-09T21:41:25.597Z,11.80
2017-09-09T21:43:53.244Z,11.70
2017-09-09T21:46:20.986Z,11.70
2017-09-09T21:48:49.381Z,11.60
2017-09-09T21:51:17.047Z,11.60
2017-09-09T21:53:44.713Z,11.60
2017-09-09T21:56:12.348Z,11.60
2017-09-09T21:58:39.960Z,11.60
2017-09-09T22:01:07.715Z,11.70
2017-09-09T22:03:35.438Z,11.60
2017-09-09T22:06:03.061Z,11.60
2017-09-09T22:08:30.880Z,11.60
2017-09-09T22:10:58.499Z,11.50
2017-09-09T22:13:26.916Z,11.60
2017-09-09T22:15:54.634Z,11.60
2017-09-09T22:18:23.024Z,11.50
2017-09-09T22:20:51.459Z,11.50
2017-09-09T22:23:19.152Z,11.50
2017-09-09T22:25:46.793Z,11.50
2017-09-09T22:28:15.217Z,11.50
2017-09-09T22:30:43.142Z,11.50
2017-09-09T22:33:11.585Z,11.50
2017-09-09T22:35:39.840Z,11.50
2017-09-09T22:38:08.045Z,11.40
2017-09-09T22:40:36.044Z,11.40
2017-09-09T22:43:04.445Z,11.40
2017-09-09T22:45:32.197Z,11.40
2017-09-09T22:48:00.716Z,11.40
2017-09-09T22:50:28.340Z,11.40
2017-09-09T22:52:56.834Z,11.40
2017-09-09T22:55:24.461Z,11.30
2017-09-09T22:57:52.854Z,11.30
2017-09-09T23:00:21.356Z,11.20
2017-09-09T23:02:49.011Z,11.20
2017-09-09T23:05:16.620Z,11.20
2017-09-09T23:07:44.276Z,11.10
2017-09-09T23:10:11.945Z,11.20
2017-09-09T23:12:39.561Z,11.20
2017-09-09T23:15:07.250Z,11.30
2017-09-09T23:17:34.887Z,11.20
2017-09-09T23:20:02.588Z,11.20
2017-09-09T23:22:30.274Z,11.20
2017-09-09T23:24:58.704Z,11.10
2017-09-09T23:27:26.343Z,11.10
2017-09-09T23:29:54.084Z,11.10
2017-09-09T23:32:21.724Z,11.10
2017-09-09T23:34:50.156Z,11.10
2017-09-09T23:37:17.867Z,11.10
2017-09-09T23:39:46.297Z,11.10
2017-09-09T23:42:13.913Z,11.00
2017-09-09T23:44:41.726Z,11.10
2017-09-09T23:47:09.356Z,11.00
2017-09-09T23:49:37.028Z,11.00
2017-09-09T23:52:04.721Z,11.00
2017-09-09T23:54:32.368Z,11.00
2017-09-09T23:57:00.008Z,11.00
2017-09-09T23:59:27.773Z,11.00
